sensor_id;sensor_type;location;lat;lon;timestamp;P1;durP1;ratioP1;P2;durP2;ratioP2
76896;SDS011;65856;52.178;21.176;2023-03-12T00:00:13;9.10;;;3.90;;
76896;SDS011;65856;52.178;21.176;2023-03-12T00:02:42;7.90;;;3.40;;
76896;SDS011;65856;52.178;21.176;2023-03-12T00:05:10;7.10;;;3.90;;
76896;SDS011;65856;52.178;21.176;2023-03-12T00:07:39;9.20;;;4.10;;
76896;SDS011;65856;52.178;21.176;2023-03-12T00:10:09;10.10;;;4.20;;
76896;SDS011;65856;52.178;21.176;2023-03-12T00:12:38;9.50;;;4.50;;
76896;SDS011;65856;52.178;21.176;2023-03-12T00:15:08;11.40;;;4.20;;
76896;SDS011;65856;52.178;21.176;2023-03-12T00:17:36;9.90;;;4.20;;
76896;SDS011;65856;52.178;21.176;2023-03-12T00:20:06;8.90;;;4.30;;
76896;SDS011;65856;52.178;21.176;2023-03-12T00:22:35;9.40;;;4.60;;
76896;SDS011;65856;52.178;21.176;2023-03-12T00:25:06;8.50;;;4.30;;
76896;SDS011;65856;52.178;21.176;2023-03-12T00:27:39;10.70;;;4.30;;
76896;SDS011;65856;52.178;21.176;2023-03-12T00:30:10;8.90;;;4.40;;
76896;SDS011;65856;52.178;21.176;2023-03-12T00:32:39;12.50;;;4.60;;
76896;SDS011;65856;52.178;21.176;2023-03-12T00:35:08;9.60;;;4.40;;
76896;SDS011;65856;52.178;21.176;2023-03-12T00:37:36;8.10;;;4.70;;
76896;SDS011;65856;52.178;21.176;2023-03-12T00:40:06;10.10;;;4.70;;
76896;SDS011;65856;52.178;21.176;2023-03-12T00:42:36;12.00;;;5.00;;
76896;SDS011;65856;52.178;21.176;2023-03-12T00:45:06;11.30;;;5.30;;
76896;SDS011;65856;52.178;21.176;2023-03-12T00:47:35;12.10;;;5.30;;
76896;SDS011;65856;52.178;21.176;2023-03-12T00:50:04;12.20;;;5.30;;
76896;SDS011;65856;52.178;21.176;2023-03-12T00:52:33;9.20;;;5.20;;
76896;SDS011;65856;52.178;21.176;2023-03-12T00:55:02;11.80;;;5.50;;
76896;SDS011;65856;52.178;21.176;2023-03-12T00:57:30;11.10;;;4.90;;
76896;SDS011;65856;52.178;21.176;2023-03-12T00:59:58;10.20;;;5.30;;
76896;SDS011;65856;52.178;21.176;2023-03-12T01:02:26;12.40;;;6.00;;
76896;SDS011;65856;52.178;21.176;2023-03-12T01:04:54;11.20;;;5.80;;
76896;SDS011;65856;52.178;21.176;2023-03-12T01:07:22;9.50;;;5.50;;
76896;SDS011;65856;52.178;21.176;2023-03-12T01:09:50;14.30;;;5.30;;
76896;SDS011;65856;52.178;21.176;2023-03-12T01:12:18;10.60;;;5.40;;
76896;SDS011;65856;52.178;21.176;2023-03-12T01:14:46;13.50;;;6.20;;
76896;SDS011;65856;52.178;21.176;2023-03-12T01:17:14;13.80;;;6.40;;
76896;SDS011;65856;52.178;21.176;2023-03-12T01:19:42;10.30;;;5.40;;
76896;SDS011;65856;52.178;21.176;2023-03-12T01:22:11;13.70;;;6.80;;
76896;SDS011;65856;52.178;21.176;2023-03-12T01:24:39;12.20;;;6.20;;
76896;SDS011;65856;52.178;21.176;2023-03-12T01:27:07;12.10;;;6.30;;
76896;SDS011;65856;52.178;21.176;2023-03-12T01:29:35;13.10;;;6.10;;
76896;SDS011;65856;52.178;21.176;2023-03-12T01:32:03;12.40;;;6.00;;
76896;SDS011;65856;52.178;21.176;2023-03-12T01:34:32;13.00;;;6.10;;
76896;SDS011;65856;52.178;21.176;2023-03-12T01:37:01;11.30;;;5.80;;
76896;SDS011;65856;52.178;21.176;2023-03-12T01:39:29;10.10;;;5.70;;
76896;SDS011;65856;52.178;21.176;2023-03-12T01:41:57;13.20;;;5.90;;
76896;SDS011;65856;52.178;21.176;2023-03-12T01:44:26;11.70;;;6.00;;
76896;SDS011;65856;52.178;21.176;2023-03-12T01:46:54;10.90;;;5.20;;
76896;SDS011;65856;52.178;21.176;2023-03-12T01:49:25;12.20;;;6.50;;
76896;SDS011;65856;52.178;21.176;2023-03-12T01:51:57;13.90;;;6.10;;
76896;SDS011;65856;52.178;21.176;2023-03-12T01:57:00;9.60;;;5.50;;
76896;SDS011;65856;52.178;21.176;2023-03-12T01:59:32;10.70;;;5.70;;
76896;SDS011;65856;52.178;21.176;2023-03-12T02:02:07;11.80;;;6.30;;
76896;SDS011;65856;52.178;21.176;2023-03-12T02:04:36;11.60;;;5.90;;
76896;SDS011;65856;52.178;21.176;2023-03-12T02:07:07;11.10;;;5.80;;
76896;SDS011;65856;52.178;21.176;2023-03-12T02:09:40;10.50;;;5.00;;
76896;SDS011;65856;52.178;21.176;2023-03-12T02:12:09;10.40;;;5.70;;
76896;SDS011;65856;52.178;21.176;2023-03-12T02:14:38;10.40;;;5.50;;
76896;SDS011;65856;52.178;21.176;2023-03-12T02:17:08;11.50;;;5.60;;
76896;SDS011;65856;52.178;21.176;2023-03-12T02:19:42;12.40;;;6.20;;
76896;SDS011;65856;52.178;21.176;2023-03-12T02:22:16;12.50;;;6.30;;
76896;SDS011;65856;52.178;21.176;2023-03-12T02:24:49;12.30;;;5.90;;
76896;SDS011;65856;52.178;21.176;2023-03-12T02:27:23;11.20;;;5.70;;
76896;SDS011;65856;52.178;21.176;2023-03-12T02:29:52;12.20;;;6.20;;
76896;SDS011;65856;52.178;21.176;2023-03-12T02:32:23;13.90;;;5.90;;
76896;SDS011;65856;52.178;21.176;2023-03-12T02:34:55;11.70;;;5.60;;
76896;SDS011;65856;52.178;21.176;2023-03-12T02:37:23;11.20;;;5.70;;
76896;SDS011;65856;52.178;21.176;2023-03-12T02:39:54;12.50;;;5.30;;
76896;SDS011;65856;52.178;21.176;2023-03-12T02:42:31;11.30;;;5.60;;
76896;SDS011;65856;52.178;21.176;2023-03-12T02:45:01;11.00;;;5.40;;
76896;SDS011;65856;52.178;21.176;2023-03-12T02:47:30;10.60;;;5.20;;
76896;SDS011;65856;52.178;21.176;2023-03-12T02:49:58;9.60;;;5.70;;
76896;SDS011;65856;52.178;21.176;2023-03-12T02:52:26;9.00;;;4.60;;
76896;SDS011;65856;52.178;21.176;2023-03-12T02:55:01;9.10;;;5.00;;
76896;SDS011;65856;52.178;21.176;2023-03-12T02:57:29;9.10;;;5.20;;
76896;SDS011;65856;52.178;21.176;2023-03-12T02:59:57;11.00;;;5.30;;
76896;SDS011;65856;52.178;21.176;2023-03-12T03:02:25;9.40;;;4.90;;
76896;SDS011;65856;52.178;21.176;2023-03-12T03:04:53;12.70;;;4.80;;
76896;SDS011;65856;52.178;21.176;2023-03-12T03:07:21;11.50;;;4.70;;
76896;SDS011;65856;52.178;21.176;2023-03-12T03:09:49;10.80;;;4.50;;
76896;SDS011;65856;52.178;21.176;2023-03-12T03:12:17;10.60;;;4.90;;
76896;SDS011;65856;52.178;21.176;2023-03-12T03:14:45;11.70;;;4.80;;
76896;SDS011;65856;52.178;21.176;2023-03-12T03:17:14;9.30;;;4.00;;
76896;SDS011;65856;52.178;21.176;2023-03-12T03:19:42;8.40;;;4.30;;
76896;SDS011;65856;52.178;21.176;2023-03-12T03:22:10;7.80;;;4.50;;
76896;SDS011;65856;52.178;21.176;2023-03-12T03:24:38;8.20;;;4.50;;
76896;SDS011;65856;52.178;21.176;2023-03-12T03:27:06;8.30;;;4.30;;
76896;SDS011;65856;52.178;21.176;2023-03-12T03:29:34;8.50;;;3.80;;
76896;SDS011;65856;52.178;21.176;2023-03-12T03:32:03;9.80;;;4.30;;
76896;SDS011;65856;52.178;21.176;2023-03-12T03:34:32;9.10;;;4.30;;
76896;SDS011;65856;52.178;21.176;2023-03-12T03:37:00;9.10;;;4.20;;
76896;SDS011;65856;52.178;21.176;2023-03-12T03:39:28;7.10;;;3.60;;
76896;SDS011;65856;52.178;21.176;2023-03-12T03:41:56;7.50;;;4.20;;
76896;SDS011;65856;52.178;21.176;2023-03-12T03:44:24;9.10;;;4.40;;
76896;SDS011;65856;52.178;21.176;2023-03-12T03:46:52;8.70;;;4.20;;
76896;SDS011;65856;52.178;21.176;2023-03-12T03:49:21;10.60;;;4.40;;
76896;SDS011;65856;52.178;21.176;2023-03-12T03:51:49;7.70;;;4.00;;
76896;SDS011;65856;52.178;21.176;2023-03-12T03:54:18;7.20;;;4.20;;
76896;SDS011;65856;52.178;21.176;2023-03-12T03:56:46;7.80;;;4.10;;
76896;SDS011;65856;52.178;21.176;2023-03-12T03:59:14;8.30;;;4.40;;
76896;SDS011;65856;52.178;21.176;2023-03-12T04:01:42;8.00;;;4.20;;
76896;SDS011;65856;52.178;21.176;2023-03-12T04:04:10;9.20;;;4.70;;
76896;SDS011;65856;52.178;21.176;2023-03-12T04:06:38;7.00;;;3.90;;
76896;SDS011;65856;52.178;21.176;2023-03-12T04:09:06;8.60;;;4.20;;
76896;SDS011;65856;52.178;21.176;2023-03-12T04:11:35;8.30;;;4.40;;
76896;SDS011;65856;52.178;21.176;2023-03-12T04:14:03;9.70;;;4.60;;
76896;SDS011;65856;52.178;21.176;2023-03-12T04:16:31;8.80;;;4.40;;
76896;SDS011;65856;52.178;21.176;2023-03-12T04:18:59;8.30;;;4.80;;
76896;SDS011;65856;52.178;21.176;2023-03-12T04:21:27;8.30;;;4.50;;
76896;SDS011;65856;52.178;21.176;2023-03-12T04:23:55;7.00;;;4.20;;
76896;SDS011;65856;52.178;21.176;2023-03-12T04:26:23;9.20;;;4.60;;
76896;SDS011;65856;52.178;21.176;2023-03-12T04:28:51;7.70;;;4.60;;
76896;SDS011;65856;52.178;21.176;2023-03-12T04:31:19;8.10;;;4.30;;
76896;SDS011;65856;52.178;21.176;2023-03-12T04:33:47;9.40;;;4.20;;
76896;SDS011;65856;52.178;21.176;2023-03-12T04:36:15;9.30;;;4.40;;
76896;SDS011;65856;52.178;21.176;2023-03-12T04:38:43;8.40;;;4.60;;
76896;SDS011;65856;52.178;21.176;2023-03-12T04:41:13;9.60;;;4.40;;
76896;SDS011;65856;52.178;21.176;2023-03-12T04:43:42;7.70;;;4.00;;
76896;SDS011;65856;52.178;21.176;2023-03-12T04:46:10;9.20;;;3.90;;
76896;SDS011;65856;52.178;21.176;2023-03-12T04:48:38;8.30;;;4.10;;
76896;SDS011;65856;52.178;21.176;2023-03-12T04:51:06;8.10;;;4.40;;
76896;SDS011;65856;52.178;21.176;2023-03-12T04:53:34;8.80;;;4.10;;
76896;SDS011;65856;52.178;21.176;2023-03-12T04:56:03;8.00;;;4.20;;
76896;SDS011;65856;52.178;21.176;2023-03-12T04:58:31;5.30;;;3.20;;
76896;SDS011;65856;52.178;21.176;2023-03-12T05:01:00;7.80;;;3.30;;
76896;SDS011;65856;52.178;21.176;2023-03-12T05:03:28;6.80;;;4.30;;
76896;SDS011;65856;52.178;21.176;2023-03-12T05:05:56;7.90;;;4.10;;
76896;SDS011;65856;52.178;21.176;2023-03-12T05:08:24;7.50;;;4.20;;
76896;SDS011;65856;52.178;21.176;2023-03-12T05:10:52;10.60;;;4.30;;
76896;SDS011;65856;52.178;21.176;2023-03-12T05:13:22;9.00;;;4.60;;
76896;SDS011;65856;52.178;21.176;2023-03-12T05:15:51;8.00;;;3.70;;
76896;SDS011;65856;52.178;21.176;2023-03-12T05:18:19;8.20;;;4.30;;
76896;SDS011;65856;52.178;21.176;2023-03-12T05:20:57;7.70;;;4.10;;
76896;SDS011;65856;52.178;21.176;2023-03-12T05:23:27;7.10;;;3.80;;
76896;SDS011;65856;52.178;21.176;2023-03-12T05:25:55;8.50;;;3.80;;
76896;SDS011;65856;52.178;21.176;2023-03-12T05:28:23;8.30;;;4.30;;
76896;SDS011;65856;52.178;21.176;2023-03-12T05:30:54;5.30;;;3.50;;
76896;SDS011;65856;52.178;21.176;2023-03-12T05:33:24;6.80;;;4.10;;
76896;SDS011;65856;52.178;21.176;2023-03-12T05:35:53;8.70;;;4.20;;
76896;SDS011;65856;52.178;21.176;2023-03-12T05:38:21;7.50;;;3.90;;
76896;SDS011;65856;52.178;21.176;2023-03-12T05:40:54;7.30;;;4.10;;
76896;SDS011;65856;52.178;21.176;2023-03-12T05:43:25;8.80;;;4.10;;
76896;SDS011;65856;52.178;21.176;2023-03-12T05:45:58;8.60;;;4.20;;
76896;SDS011;65856;52.178;21.176;2023-03-12T05:48:27;8.70;;;4.00;;
76896;SDS011;65856;52.178;21.176;2023-03-12T05:50:56;5.90;;;3.80;;
76896;SDS011;65856;52.178;21.176;2023-03-12T05:53:24;5.60;;;3.30;;
76896;SDS011;65856;52.178;21.176;2023-03-12T05:55:53;8.80;;;3.60;;
76896;SDS011;65856;52.178;21.176;2023-03-12T05:58:21;6.60;;;3.80;;
76896;SDS011;65856;52.178;21.176;2023-03-12T06:00:49;8.00;;;3.30;;
76896;SDS011;65856;52.178;21.176;2023-03-12T06:03:17;6.00;;;3.50;;
76896;SDS011;65856;52.178;21.176;2023-03-12T06:05:45;7.70;;;3.70;;
76896;SDS011;65856;52.178;21.176;2023-03-12T06:08:13;6.60;;;3.20;;
76896;SDS011;65856;52.178;21.176;2023-03-12T06:10:41;7.10;;;3.50;;
76896;SDS011;65856;52.178;21.176;2023-03-12T06:13:09;8.10;;;4.00;;
76896;SDS011;65856;52.178;21.176;2023-03-12T06:15:37;6.80;;;3.90;;
76896;SDS011;65856;52.178;21.176;2023-03-12T06:18:06;8.70;;;3.80;;
76896;SDS011;65856;52.178;21.176;2023-03-12T06:20:34;6.90;;;3.50;;
76896;SDS011;65856;52.178;21.176;2023-03-12T06:23:02;7.20;;;3.30;;
76896;SDS011;65856;52.178;21.176;2023-03-12T06:25:30;6.70;;;3.40;;
76896;SDS011;65856;52.178;21.176;2023-03-12T06:27:58;5.90;;;2.90;;
76896;SDS011;65856;52.178;21.176;2023-03-12T06:30:26;7.40;;;3.50;;
76896;SDS011;65856;52.178;21.176;2023-03-12T06:32:54;6.50;;;3.10;;
76896;SDS011;65856;52.178;21.176;2023-03-12T06:35:22;4.50;;;3.10;;
76896;SDS011;65856;52.178;21.176;2023-03-12T06:37:50;5.70;;;3.20;;
76896;SDS011;65856;52.178;21.176;2023-03-12T06:40:18;5.90;;;3.00;;
76896;SDS011;65856;52.178;21.176;2023-03-12T06:42:46;7.50;;;3.20;;
76896;SDS011;65856;52.178;21.176;2023-03-12T06:45:15;7.00;;;3.20;;
76896;SDS011;65856;52.178;21.176;2023-03-12T06:47:43;6.60;;;3.50;;
76896;SDS011;65856;52.178;21.176;2023-03-12T06:50:11;6.80;;;2.90;;
76896;SDS011;65856;52.178;21.176;2023-03-12T06:52:39;5.60;;;2.60;;
76896;SDS011;65856;52.178;21.176;2023-03-12T06:58:48;5.90;;;2.90;;
76896;SDS011;65856;52.178;21.176;2023-03-12T07:01:16;7.20;;;3.60;;
76896;SDS011;65856;52.178;21.176;2023-03-12T07:03:44;5.40;;;3.00;;
76896;SDS011;65856;52.178;21.176;2023-03-12T07:06:14;5.60;;;2.80;;
76896;SDS011;65856;52.178;21.176;2023-03-12T07:08:43;5.90;;;3.10;;
76896;SDS011;65856;52.178;21.176;2023-03-12T07:11:12;5.80;;;3.00;;
76896;SDS011;65856;52.178;21.176;2023-03-12T07:13:41;5.00;;;2.80;;
76896;SDS011;65856;52.178;21.176;2023-03-12T07:16:09;7.50;;;3.20;;
76896;SDS011;65856;52.178;21.176;2023-03-12T07:18:37;4.90;;;2.90;;
76896;SDS011;65856;52.178;21.176;2023-03-12T07:21:06;6.30;;;3.30;;
76896;SDS011;65856;52.178;21.176;2023-03-12T07:23:34;7.40;;;3.20;;
76896;SDS011;65856;52.178;21.176;2023-03-12T07:26:03;5.70;;;2.90;;
76896;SDS011;65856;52.178;21.176;2023-03-12T07:28:32;6.90;;;3.10;;
76896;SDS011;65856;52.178;21.176;2023-03-12T07:31:01;8.50;;;3.50;;
76896;SDS011;65856;52.178;21.176;2023-03-12T07:33:30;5.40;;;3.30;;
76896;SDS011;65856;52.178;21.176;2023-03-12T07:35:58;8.60;;;3.50;;
76896;SDS011;65856;52.178;21.176;2023-03-12T07:38:27;7.80;;;3.50;;
76896;SDS011;65856;52.178;21.176;2023-03-12T07:40:56;7.00;;;3.20;;
76896;SDS011;65856;52.178;21.176;2023-03-12T07:43:26;10.00;;;3.70;;
76896;SDS011;65856;52.178;21.176;2023-03-12T07:45:54;7.50;;;3.10;;
76896;SDS011;65856;52.178;21.176;2023-03-12T07:48:22;7.50;;;2.90;;
76896;SDS011;65856;52.178;21.176;2023-03-12T07:50:50;5.00;;;3.00;;
76896;SDS011;65856;52.178;21.176;2023-03-12T07:53:18;7.20;;;3.30;;
76896;SDS011;65856;52.178;21.176;2023-03-12T07:55:47;5.90;;;3.00;;
76896;SDS011;65856;52.178;21.176;2023-03-12T07:58:15;7.00;;;3.50;;
76896;SDS011;65856;52.178;21.176;2023-03-12T08:00:44;9.20;;;3.50;;
76896;SDS011;65856;52.178;21.176;2023-03-12T08:03:12;6.30;;;3.30;;
76896;SDS011;65856;52.178;21.176;2023-03-12T08:05:40;9.50;;;3.20;;
76896;SDS011;65856;52.178;21.176;2023-03-12T08:08:09;4.80;;;2.80;;
76896;SDS011;65856;52.178;21.176;2023-03-12T08:10:37;8.10;;;2.70;;
76896;SDS011;65856;52.178;21.176;2023-03-12T08:13:05;5.90;;;2.70;;
76896;SDS011;65856;52.178;21.176;2023-03-12T08:15:33;4.70;;;2.60;;
76896;SDS011;65856;52.178;21.176;2023-03-12T08:18:01;3.80;;;2.10;;
76896;SDS011;65856;52.178;21.176;2023-03-12T08:20:29;4.50;;;2.80;;
76896;SDS011;65856;52.178;21.176;2023-03-12T08:22:57;4.50;;;2.50;;
76896;SDS011;65856;52.178;21.176;2023-03-12T08:25:25;4.30;;;2.60;;
76896;SDS011;65856;52.178;21.176;2023-03-12T08:27:54;7.30;;;2.30;;
76896;SDS011;65856;52.178;21.176;2023-03-12T08:30:22;4.60;;;2.40;;
76896;SDS011;65856;52.178;21.176;2023-03-12T08:32:50;4.30;;;1.90;;
76896;SDS011;65856;52.178;21.176;2023-03-12T08:35:18;4.90;;;2.30;;
76896;SDS011;65856;52.178;21.176;2023-03-12T08:37:46;4.50;;;2.10;;
76896;SDS011;65856;52.178;21.176;2023-03-12T08:40:15;6.10;;;1.70;;
76896;SDS011;65856;52.178;21.176;2023-03-12T08:42:44;4.00;;;1.80;;
76896;SDS011;65856;52.178;21.176;2023-03-12T08:45:13;4.70;;;1.70;;
76896;SDS011;65856;52.178;21.176;2023-03-12T08:47:42;5.90;;;1.90;;
76896;SDS011;65856;52.178;21.176;2023-03-12T08:50:12;4.50;;;1.80;;
76896;SDS011;65856;52.178;21.176;2023-03-12T08:55:10;4.90;;;1.40;;
76896;SDS011;65856;52.178;21.176;2023-03-12T08:57:39;4.00;;;1.60;;
76896;SDS011;65856;52.178;21.176;2023-03-12T09:00:12;2.60;;;1.40;;
76896;SDS011;65856;52.178;21.176;2023-03-12T09:02:44;4.30;;;1.80;;
76896;SDS011;65856;52.178;21.176;2023-03-12T09:05:13;4.00;;;1.60;;
76896;SDS011;65856;52.178;21.176;2023-03-12T09:07:41;5.20;;;1.70;;
76896;SDS011;65856;52.178;21.176;2023-03-12T09:10:10;4.60;;;1.60;;
76896;SDS011;65856;52.178;21.176;2023-03-12T09:12:38;4.20;;;1.50;;
76896;SDS011;65856;52.178;21.176;2023-03-12T09:15:08;3.80;;;1.20;;
76896;SDS011;65856;52.178;21.176;2023-03-12T09:17:37;4.10;;;1.80;;
76896;SDS011;65856;52.178;21.176;2023-03-12T09:20:08;3.00;;;1.70;;
76896;SDS011;65856;52.178;21.176;2023-03-12T09:22:40;8.90;;;3.00;;
76896;SDS011;65856;52.178;21.176;2023-03-12T09:25:10;5.70;;;2.70;;
76896;SDS011;65856;52.178;21.176;2023-03-12T09:27:40;7.10;;;2.40;;
76896;SDS011;65856;52.178;21.176;2023-03-12T09:30:13;3.70;;;1.80;;
76896;SDS011;65856;52.178;21.176;2023-03-12T09:32:43;4.60;;;2.00;;
76896;SDS011;65856;52.178;21.176;2023-03-12T09:35:13;2.60;;;1.30;;
76896;SDS011;65856;52.178;21.176;2023-03-12T09:37:41;6.50;;;1.60;;
76896;SDS011;65856;52.178;21.176;2023-03-12T09:40:16;3.10;;;1.40;;
76896;SDS011;65856;52.178;21.176;2023-03-12T09:42:48;3.80;;;1.50;;
76896;SDS011;65856;52.178;21.176;2023-03-12T09:45:21;5.10;;;1.70;;
76896;SDS011;65856;52.178;21.176;2023-03-12T09:47:53;3.00;;;1.60;;
76896;SDS011;65856;52.178;21.176;2023-03-12T09:50:27;3.50;;;1.30;;
76896;SDS011;65856;52.178;21.176;2023-03-12T09:53:00;3.00;;;1.70;;
76896;SDS011;65856;52.178;21.176;2023-03-12T09:55:37;3.50;;;1.10;;
76896;SDS011;65856;52.178;21.176;2023-03-12T09:58:13;3.10;;;1.40;;
76896;SDS011;65856;52.178;21.176;2023-03-12T10:00:44;3.50;;;1.30;;
76896;SDS011;65856;52.178;21.176;2023-03-12T10:03:27;2.40;;;1.10;;
76896;SDS011;65856;52.178;21.176;2023-03-12T10:06:11;6.70;;;1.70;;
76896;SDS011;65856;52.178;21.176;2023-03-12T10:08:53;3.60;;;1.40;;
76896;SDS011;65856;52.178;21.176;2023-03-12T10:11:39;3.60;;;1.30;;
76896;SDS011;65856;52.178;21.176;2023-03-12T10:14:20;4.30;;;1.20;;
76896;SDS011;65856;52.178;21.176;2023-03-12T10:17:08;4.30;;;1.40;;
76896;SDS011;65856;52.178;21.176;2023-03-12T10:19:57;2.50;;;1.10;;
76896;SDS011;65856;52.178;21.176;2023-03-12T10:22:45;8.00;;;1.80;;
76896;SDS011;65856;52.178;21.176;2023-03-12T10:25:26;4.00;;;1.70;;
76896;SDS011;65856;52.178;21.176;2023-03-12T10:28:03;3.60;;;1.30;;
76896;SDS011;65856;52.178;21.176;2023-03-12T10:30:41;5.00;;;1.50;;
76896;SDS011;65856;52.178;21.176;2023-03-12T10:33:16;4.40;;;1.80;;
76896;SDS011;65856;52.178;21.176;2023-03-12T10:35:45;2.30;;;1.30;;
76896;SDS011;65856;52.178;21.176;2023-03-12T10:38:18;4.50;;;2.00;;
76896;SDS011;65856;52.178;21.176;2023-03-12T10:40:53;5.30;;;1.80;;
76896;SDS011;65856;52.178;21.176;2023-03-12T10:43:22;4.70;;;1.50;;
76896;SDS011;65856;52.178;21.176;2023-03-12T10:45:58;4.70;;;1.50;;
76896;SDS011;65856;52.178;21.176;2023-03-12T10:48:36;4.20;;;1.60;;
76896;SDS011;65856;52.178;21.176;2023-03-12T10:51:06;4.30;;;1.40;;
76896;SDS011;65856;52.178;21.176;2023-03-12T10:53:36;3.40;;;1.50;;
76896;SDS011;65856;52.178;21.176;2023-03-12T10:56:08;4.10;;;1.70;;
76896;SDS011;65856;52.178;21.176;2023-03-12T10:58:40;4.00;;;1.50;;
76896;SDS011;65856;52.178;21.176;2023-03-12T11:01:19;3.70;;;1.70;;
76896;SDS011;65856;52.178;21.176;2023-03-12T11:03:50;7.80;;;1.60;;
76896;SDS011;65856;52.178;21.176;2023-03-12T11:06:23;4.20;;;1.40;;
76896;SDS011;65856;52.178;21.176;2023-03-12T11:09:04;4.00;;;1.50;;
76896;SDS011;65856;52.178;21.176;2023-03-12T11:11:40;6.10;;;1.80;;
76896;SDS011;65856;52.178;21.176;2023-03-12T11:14:15;3.70;;;1.70;;
76896;SDS011;65856;52.178;21.176;2023-03-12T11:16:45;4.00;;;1.50;;
76896;SDS011;65856;52.178;21.176;2023-03-12T11:19:24;4.50;;;1.60;;
76896;SDS011;65856;52.178;21.176;2023-03-12T11:21:56;5.50;;;1.80;;
76896;SDS011;65856;52.178;21.176;2023-03-12T11:24:25;5.00;;;2.40;;
76896;SDS011;65856;52.178;21.176;2023-03-12T11:26:58;7.30;;;1.60;;
76896;SDS011;65856;52.178;21.176;2023-03-12T11:29:32;10.20;;;3.00;;
76896;SDS011;65856;52.178;21.176;2023-03-12T11:32:13;6.60;;;2.00;;
76896;SDS011;65856;52.178;21.176;2023-03-12T11:34:44;7.20;;;2.10;;
76896;SDS011;65856;52.178;21.176;2023-03-12T11:37:17;4.90;;;1.60;;
76896;SDS011;65856;52.178;21.176;2023-03-12T11:40:04;3.10;;;1.50;;
76896;SDS011;65856;52.178;21.176;2023-03-12T11:42:47;4.00;;;1.30;;
76896;SDS011;65856;52.178;21.176;2023-03-12T11:45:30;3.50;;;1.30;;
76896;SDS011;65856;52.178;21.176;2023-03-12T11:48:11;3.50;;;1.40;;
76896;SDS011;65856;52.178;21.176;2023-03-12T11:50:59;2.50;;;1.40;;
76896;SDS011;65856;52.178;21.176;2023-03-12T11:53:54;5.80;;;2.50;;
76896;SDS011;65856;52.178;21.176;2023-03-12T11:56:33;3.30;;;1.50;;
76896;SDS011;65856;52.178;21.176;2023-03-12T11:59:28;3.80;;;1.40;;
76896;SDS011;65856;52.178;21.176;2023-03-12T12:02:16;4.40;;;1.60;;
76896;SDS011;65856;52.178;21.176;2023-03-12T12:05:18;4.40;;;1.20;;
76896;SDS011;65856;52.178;21.176;2023-03-12T12:08:01;3.40;;;1.40;;
76896;SDS011;65856;52.178;21.176;2023-03-12T12:10:47;3.60;;;1.50;;
76896;SDS011;65856;52.178;21.176;2023-03-12T12:13:29;2.50;;;1.20;;
76896;SDS011;65856;52.178;21.176;2023-03-12T12:16:22;6.10;;;1.60;;
76896;SDS011;65856;52.178;21.176;2023-03-12T12:19:12;4.20;;;1.50;;
76896;SDS011;65856;52.178;21.176;2023-03-12T12:21:59;5.00;;;1.60;;
76896;SDS011;65856;52.178;21.176;2023-03-12T12:24:50;2.30;;;1.10;;
76896;SDS011;65856;52.178;21.176;2023-03-12T12:27:39;3.70;;;1.10;;
76896;SDS011;65856;52.178;21.176;2023-03-12T12:30:18;4.60;;;1.40;;
76896;SDS011;65856;52.178;21.176;2023-03-12T12:33:02;2.10;;;0.90;;
76896;SDS011;65856;52.178;21.176;2023-03-12T12:35:42;3.00;;;1.30;;
76896;SDS011;65856;52.178;21.176;2023-03-12T12:38:15;3.40;;;1.20;;
76896;SDS011;65856;52.178;21.176;2023-03-12T12:40:59;3.90;;;1.70;;
76896;SDS011;65856;52.178;21.176;2023-03-12T12:43:31;3.20;;;1.30;;
76896;SDS011;65856;52.178;21.176;2023-03-12T12:46:07;4.10;;;1.20;;
76896;SDS011;65856;52.178;21.176;2023-03-12T12:48:40;3.00;;;1.50;;
76896;SDS011;65856;52.178;21.176;2023-03-12T12:51:11;2.50;;;1.20;;
76896;SDS011;65856;52.178;21.176;2023-03-12T12:53:47;4.00;;;1.50;;
76896;SDS011;65856;52.178;21.176;2023-03-12T12:56:27;6.70;;;1.40;;
76896;SDS011;65856;52.178;21.176;2023-03-12T12:59:19;3.30;;;1.40;;
76896;SDS011;65856;52.178;21.176;2023-03-12T13:01:55;3.80;;;1.30;;
76896;SDS011;65856;52.178;21.176;2023-03-12T13:04:27;3.10;;;1.50;;
76896;SDS011;65856;52.178;21.176;2023-03-12T13:07:03;3.70;;;1.50;;
76896;SDS011;65856;52.178;21.176;2023-03-12T13:10:05;3.80;;;1.70;;
76896;SDS011;65856;52.178;21.176;2023-03-12T13:12:55;2.50;;;1.30;;
76896;SDS011;65856;52.178;21.176;2023-03-12T13:15:41;3.30;;;1.30;;
76896;SDS011;65856;52.178;21.176;2023-03-12T13:18:21;3.50;;;1.30;;
76896;SDS011;65856;52.178;21.176;2023-03-12T13:21:13;3.70;;;1.70;;
76896;SDS011;65856;52.178;21.176;2023-03-12T13:23:57;11.60;;;2.30;;
76896;SDS011;65856;52.178;21.176;2023-03-12T13:26:49;4.80;;;1.40;;
76896;SDS011;65856;52.178;21.176;2023-03-12T13:29:34;2.60;;;1.30;;
76896;SDS011;65856;52.178;21.176;2023-03-12T13:32:06;2.90;;;1.50;;
76896;SDS011;65856;52.178;21.176;2023-03-12T13:37:56;4.30;;;1.30;;
76896;SDS011;65856;52.178;21.176;2023-03-12T13:40:52;4.80;;;1.80;;
76896;SDS011;65856;52.178;21.176;2023-03-12T13:43:48;4.10;;;1.60;;
76896;SDS011;65856;52.178;21.176;2023-03-12T13:46:39;3.40;;;1.40;;
76896;SDS011;65856;52.178;21.176;2023-03-12T13:49:16;3.90;;;1.50;;
76896;SDS011;65856;52.178;21.176;2023-03-12T13:51:54;4.60;;;1.30;;
76896;SDS011;65856;52.178;21.176;2023-03-12T13:54:28;3.20;;;1.20;;
76896;SDS011;65856;52.178;21.176;2023-03-12T13:57:02;3.30;;;1.30;;
76896;SDS011;65856;52.178;21.176;2023-03-12T13:59:42;5.40;;;1.50;;
76896;SDS011;65856;52.178;21.176;2023-03-12T14:02:20;4.10;;;1.30;;
76896;SDS011;65856;52.178;21.176;2023-03-12T14:04:51;3.90;;;1.40;;
76896;SDS011;65856;52.178;21.176;2023-03-12T14:10:32;3.50;;;1.30;;
76896;SDS011;65856;52.178;21.176;2023-03-12T14:13:23;4.50;;;1.60;;
76896;SDS011;65856;52.178;21.176;2023-03-12T14:16:06;4.80;;;1.60;;
76896;SDS011;65856;52.178;21.176;2023-03-12T14:18:42;2.50;;;1.40;;
76896;SDS011;65856;52.178;21.176;2023-03-12T14:21:15;2.50;;;1.20;;
76896;SDS011;65856;52.178;21.176;2023-03-12T14:23:47;3.20;;;1.70;;
76896;SDS011;65856;52.178;21.176;2023-03-12T14:26:22;5.00;;;1.70;;
76896;SDS011;65856;52.178;21.176;2023-03-12T14:28:58;5.40;;;1.90;;
76896;SDS011;65856;52.178;21.176;2023-03-12T14:31:30;4.80;;;1.80;;
76896;SDS011;65856;52.178;21.176;2023-03-12T14:34:04;2.40;;;1.70;;
76896;SDS011;65856;52.178;21.176;2023-03-12T14:36:39;4.40;;;1.90;;
76896;SDS011;65856;52.178;21.176;2023-03-12T14:39:26;5.00;;;1.80;;
76896;SDS011;65856;52.178;21.176;2023-03-12T14:42:00;7.00;;;1.80;;
76896;SDS011;65856;52.178;21.176;2023-03-12T14:44:31;3.80;;;1.80;;
76896;SDS011;65856;52.178;21.176;2023-03-12T14:47:02;5.00;;;1.60;;
76896;SDS011;65856;52.178;21.176;2023-03-12T14:49:39;4.60;;;1.70;;
76896;SDS011;65856;52.178;21.176;2023-03-12T14:52:10;3.50;;;1.70;;
76896;SDS011;65856;52.178;21.176;2023-03-12T14:54:52;4.40;;;1.60;;
76896;SDS011;65856;52.178;21.176;2023-03-12T14:57:22;4.20;;;1.90;;
76896;SDS011;65856;52.178;21.176;2023-03-12T14:59:55;3.50;;;1.70;;
76896;SDS011;65856;52.178;21.176;2023-03-12T15:02:25;5.40;;;1.70;;
76896;SDS011;65856;52.178;21.176;2023-03-12T15:04:58;5.70;;;1.70;;
76896;SDS011;65856;52.178;21.176;2023-03-12T15:07:30;3.70;;;1.80;;
76896;SDS011;65856;52.178;21.176;2023-03-12T15:10:02;5.80;;;1.70;;
76896;SDS011;65856;52.178;21.176;2023-03-12T15:12:35;3.70;;;1.80;;
76896;SDS011;65856;52.178;21.176;2023-03-12T15:15:07;4.40;;;1.70;;
76896;SDS011;65856;52.178;21.176;2023-03-12T15:17:46;3.20;;;1.80;;